createdAt,value
2018-07-10T00:02:32.761Z,80.40
2018-07-10T00:07:28.401Z,80.40
2018-07-10T00:10:13.560Z,80.40
2018-07-10T00:12:42.037Z,80.40
2018-07-10T00:15:10.481Z,80.50
2018-07-10T00:20:07.124Z,80.40
2018-07-10T00:22:35.853Z,80.50
2018-07-10T00:25:04.323Z,80.50
2018-07-10T00:27:32.993Z,80.60
2018-07-10T00:30:01.483Z,80.50
2018-07-10T00:32:29.926Z,80.60
2018-07-10T00:34:58.481Z,80.40
2018-07-10T00:37:26.973Z,80.60
2018-07-10T00:39:55.605Z,80.60
2018-07-10T00:42:24.096Z,80.80
2018-07-10T00:44:52.568Z,80.80
2018-07-10T00:47:21.000Z,80.90
2018-07-10T00:49:49.531Z,81.00
2018-07-10T00:52:32.732Z,81.10
2018-07-10T00:55:01.705Z,81.10
2018-07-10T00:57:31.814Z,81.00
2018-07-10T01:00:00.601Z,81.10
2018-07-10T01:02:29.048Z,81.00
2018-07-10T01:04:57.532Z,81.10
2018-07-10T01:07:26.005Z,81.20
2018-07-10T01:09:54.634Z,81.30
2018-07-10T01:12:23.157Z,81.20
2018-07-10T01:14:51.698Z,81.20
2018-07-10T01:17:20.146Z,81.30
2018-07-10T01:19:48.685Z,81.50
2018-07-10T01:22:17.183Z,81.50
2018-07-10T01:24:45.736Z,81.60
2018-07-10T01:27:14.570Z,81.70
2018-07-10T01:32:17.849Z,81.90
2018-07-10T01:34:46.329Z,81.90
2018-07-10T01:37:15.067Z,82.00
2018-07-10T01:42:11.715Z,82.00
2018-07-10T01:44:40.261Z,82.10
2018-07-10T01:47:08.786Z,82.30
2018-07-10T01:49:37.326Z,82.30
2018-07-10T01:52:05.895Z,82.40
2018-07-10T01:54:34.406Z,82.30
2018-07-10T01:57:03.261Z,82.10
2018-07-10T01:59:32.083Z,82.00
2018-07-10T02:02:00.590Z,82.10
2018-07-10T02:04:29.329Z,82.10
2018-07-10T02:06:57.834Z,82.30
2018-07-10T02:09:26.384Z,82.30
2018-07-10T02:11:55.104Z,82.10
2018-07-10T02:14:23.556Z,82.10
2018-07-10T02:16:52.057Z,82.10
2018-07-10T02:19:21.600Z,82.00
2018-07-10T02:21:50.119Z,82.10
2018-07-10T02:24:22.021Z,82.10
2018-07-10T02:26:50.933Z,82.00
2018-07-10T02:29:19.977Z,82.50
2018-07-10T02:31:49.199Z,82.30
2018-07-10T02:34:17.706Z,82.60
2018-07-10T02:36:46.297Z,82.40
2018-07-10T02:39:15.570Z,82.40
2018-07-10T02:41:44.122Z,82.30
2018-07-10T02:44:12.766Z,82.30
2018-07-10T02:46:41.314Z,82.50
2018-07-10T02:49:15.371Z,82.30
2018-07-10T02:51:48.105Z,82.60
2018-07-10T02:54:17.262Z,82.80
2018-07-10T02:56:47.330Z,82.80
2018-07-10T02:59:15.993Z,82.70
2018-07-10T03:01:44.521Z,82.80
2018-07-10T03:04:13.017Z,82.60
2018-07-10T03:06:43.372Z,82.60
2018-07-10T03:09:13.468Z,82.30
2018-07-10T03:11:41.985Z,82.30
2018-07-10T03:14:10.561Z,82.60
2018-07-10T03:16:39.476Z,82.60
2018-07-10T03:19:09.836Z,82.60
2018-07-10T03:21:38.341Z,82.80
2018-07-10T03:24:06.956Z,82.60
2018-07-10T03:26:35.645Z,82.60
2018-07-10T03:29:04.108Z,82.80
2018-07-10T03:31:32.641Z,82.80
2018-07-10T03:34:01.144Z,82.90
2018-07-10T03:36:29.784Z,82.70
2018-07-10T03:38:58.233Z,82.60
2018-07-10T03:41:26.764Z,82.50
2018-07-10T03:43:55.432Z,82.30
2018-07-10T03:46:24.042Z,82.50
2018-07-10T03:48:52.560Z,82.60
2018-07-10T03:51:21.103Z,83.00
2018-07-10T03:56:18.909Z,83.00
2018-07-10T03:58:49.966Z,83.10
2018-07-10T04:01:18.480Z,82.90
2018-07-10T04:03:47.011Z,82.80
2018-07-10T04:06:16.180Z,82.70
2018-07-10T04:08:45.490Z,82.80
2018-07-10T04:11:14.244Z,82.50
2018-07-10T04:13:42.782Z,82.50
2018-07-10T04:16:11.263Z,82.60
2018-07-10T04:18:39.790Z,82.80
2018-07-10T04:21:20.065Z,82.90
2018-07-10T04:23:54.480Z,82.80
2018-07-10T04:26:23.652Z,82.80
2018-07-10T04:28:59.601Z,82.90
2018-07-10T04:31:33.866Z,82.80
2018-07-10T04:34:02.519Z,82.50
2018-07-10T04:36:31.133Z,82.30
2018-07-10T04:38:59.652Z,81.80
2018-07-10T04:41:30.165Z,82.00
2018-07-10T04:44:09.003Z,81.70
2018-07-10T04:46:40.830Z,81.70
2018-07-10T04:49:32.795Z,81.40
2018-07-10T04:52:08.921Z,81.40
2018-07-10T04:54:47.548Z,81.20
2018-07-10T04:57:19.349Z,81.20
2018-07-10T04:59:47.933Z,81.40
2018-07-10T05:02:16.517Z,81.40
2018-07-10T05:04:45.083Z,81.20
2018-07-10T05:07:13.740Z,81.00
2018-07-10T05:09:42.525Z,80.80
2018-07-10T05:12:11.103Z,80.90
2018-07-10T05:14:42.665Z,80.80
2018-07-10T05:17:11.178Z,80.90
2018-07-10T05:19:39.707Z,81.50
2018-07-10T05:22:08.224Z,81.50
2018-07-10T05:24:37.249Z,81.30
2018-07-10T05:27:05.744Z,81.40
2018-07-10T05:29:34.311Z,81.20
2018-07-10T05:32:03.616Z,81.20
2018-07-10T05:34:34.100Z,81.30
2018-07-10T05:37:02.638Z,80.90
2018-07-10T05:39:33.096Z,80.90
2018-07-10T05:42:01.976Z,80.50
2018-07-10T05:44:31.341Z,81.20
2018-07-10T05:49:32.401Z,81.40
2018-07-10T05:52:01.078Z,81.50
2018-07-10T05:54:29.593Z,81.70
2018-07-10T05:56:58.079Z,81.50
2018-07-10T05:59:26.614Z,81.50
2018-07-10T06:01:55.880Z,81.60
2018-07-10T06:04:24.440Z,81.30
2018-07-10T06:06:52.972Z,81.20
2018-07-10T06:09:21.517Z,80.90
2018-07-10T06:11:50.029Z,80.50
2018-07-10T06:14:18.620Z,79.20
2018-07-10T06:16:47.153Z,79.00
2018-07-10T06:19:16.552Z,78.20
2018-07-10T06:21:47.728Z,78.30
2018-07-10T06:24:21.917Z,78.70
2018-07-10T06:26:57.874Z,79.20
2018-07-10T06:29:28.529Z,79.50
2018-07-10T06:31:58.381Z,79.80
2018-07-10T06:34:32.650Z,79.80
2018-07-10T06:39:33.150Z,80.20
2018-07-10T06:42:08.438Z,79.90
2018-07-10T06:44:37.965Z,79.10
2018-07-10T06:47:26.585Z,78.70
2018-07-10T06:49:55.252Z,78.30
2018-07-10T06:52:23.950Z,78.70
2018-07-10T06:55:05.944Z,78.40
2018-07-10T06:57:35.781Z,78.10
2018-07-10T07:00:11.636Z,78.20
2018-07-10T07:02:40.498Z,77.80
2018-07-10T07:05:09.218Z,77.70
2018-07-10T07:07:38.718Z,78.30
2018-07-10T07:10:09.641Z,78.70
2018-07-10T07:12:39.072Z,80.00
2018-07-10T07:15:10.076Z,80.90
2018-07-10T07:17:41.239Z,81.00
2018-07-10T07:20:09.698Z,81.10
2018-07-10T07:22:38.408Z,82.30
2018-07-10T07:27:35.115Z,81.50
2018-07-10T07:30:03.643Z,81.50
2018-07-10T07:32:32.357Z,80.20
2018-07-10T07:35:00.896Z,80.00
2018-07-10T07:37:29.757Z,78.80
2018-07-10T07:39:58.415Z,78.00
2018-07-10T07:42:27.416Z,77.10
2018-07-10T07:44:56.147Z,77.20
2018-07-10T07:47:27.542Z,78.00
2018-07-10T07:49:56.096Z,78.50
2018-07-10T07:52:27.831Z,78.50
2018-07-10T07:57:25.432Z,78.80
2018-07-10T07:59:54.129Z,79.00
2018-07-10T08:02:23.322Z,79.00
2018-07-10T08:04:52.287Z,78.30
2018-07-10T08:07:21.909Z,78.10
2018-07-10T08:09:51.189Z,77.60
2018-07-10T08:12:20.038Z,78.80
2018-07-10T08:14:48.589Z,79.10
2018-07-10T08:17:17.453Z,79.50
2018-07-10T08:19:46.851Z,79.10
2018-07-10T08:22:15.469Z,80.90
2018-07-10T08:24:44.016Z,81.00
2018-07-10T08:27:12.631Z,81.10
2018-07-10T08:29:41.464Z,80.10
2018-07-10T08:32:10.001Z,80.10
2018-07-10T08:34:38.516Z,80.00
2018-07-10T08:37:07.080Z,79.70
2018-07-10T08:39:35.585Z,79.40
2018-07-10T08:42:05.932Z,78.90
2018-07-10T08:44:34.569Z,79.00
2018-07-10T08:47:03.829Z,79.00
2018-07-10T08:49:34.973Z,78.40
2018-07-10T08:52:03.578Z,78.50
2018-07-10T08:54:32.082Z,78.30
2018-07-10T08:57:01.879Z,76.70
2018-07-10T08:59:30.865Z,76.50
2018-07-10T09:01:59.405Z,76.00
2018-07-10T09:04:27.956Z,75.50
2018-07-10T09:06:56.513Z,75.50
2018-07-10T09:09:25.026Z,75.80
2018-07-10T09:11:53.559Z,75.50
2018-07-10T09:14:22.061Z,75.10
2018-07-10T09:16:50.636Z,74.50
2018-07-10T09:19:25.083Z,74.00
2018-07-10T09:21:57.540Z,71.80
2018-07-10T09:24:26.105Z,68.60
2018-07-10T09:26:55.030Z,66.10
2018-07-10T09:29:24.662Z,66.10
2018-07-10T09:31:53.172Z,67.40
2018-07-10T09:34:21.669Z,67.70
2018-07-10T09:36:50.200Z,67.80
2018-07-10T09:39:18.737Z,67.50
2018-07-10T09:41:47.246Z,67.40
2018-07-10T09:44:15.876Z,68.60
2018-07-10T09:46:44.404Z,69.70
2018-07-10T09:49:13.132Z,69.60
2018-07-10T09:51:41.964Z,69.10
2018-07-10T09:54:10.934Z,69.20
2018-07-10T09:56:39.496Z,69.40
2018-07-10T10:01:36.436Z,69.10
2018-07-10T10:04:05.774Z,70.20
2018-07-10T10:06:34.939Z,70.50
2018-07-10T10:11:32.411Z,71.40
2018-07-10T10:14:01.198Z,71.70
2018-07-10T10:16:29.680Z,72.10
2018-07-10T10:18:59.202Z,72.70
2018-07-10T10:21:29.191Z,73.10
2018-07-10T10:23:59.004Z,73.10
2018-07-10T10:26:28.184Z,73.30
2018-07-10T10:28:56.701Z,73.30
2018-07-10T10:31:25.584Z,73.70
2018-07-10T10:33:54.099Z,72.40
2018-07-10T10:36:22.552Z,69.70
2018-07-10T10:38:51.165Z,69.90
2018-07-10T10:41:19.677Z,69.90
2018-07-10T10:43:49.008Z,69.60
2018-07-10T10:46:20.999Z,68.90
2018-07-10T10:48:49.544Z,69.10
2018-07-10T10:51:19.991Z,68.30
2018-07-10T10:53:48.548Z,68.50
2018-07-10T10:56:17.100Z,67.50
2018-07-10T10:58:45.906Z,68.10
2018-07-10T11:01:14.471Z,68.00
2018-07-10T11:03:43.076Z,67.30
2018-07-10T11:06:12.060Z,66.90
2018-07-10T11:08:40.609Z,65.50
2018-07-10T11:11:09.124Z,65.40
2018-07-10T11:13:37.663Z,65.10
2018-07-10T11:16:06.317Z,66.00
2018-07-10T11:18:38.345Z,66.10
2018-07-10T11:21:14.495Z,66.10
2018-07-10T11:24:03.861Z,65.60
2018-07-10T11:26:37.650Z,66.10
2018-07-10T11:29:07.137Z,65.80
2018-07-10T11:31:36.475Z,64.70
2018-07-10T11:34:05.633Z,65.30
2018-07-10T11:39:07.374Z,65.60
2018-07-10T11:41:38.986Z,65.20
2018-07-10T11:44:08.748Z,65.10
2018-07-10T11:46:37.758Z,64.90
2018-07-10T11:49:06.333Z,64.80
2018-07-10T11:51:34.952Z,64.60
2018-07-10T11:54:03.680Z,64.90
2018-07-10T11:56:32.277Z,64.80
2018-07-10T11:59:01.257Z,65.20
2018-07-10T12:01:30.377Z,65.10
2018-07-10T12:03:59.941Z,64.50
2018-07-10T12:06:28.444Z,64.60
2018-07-10T12:08:59.045Z,65.20
2018-07-10T12:11:30.937Z,65.90
2018-07-10T12:13:59.468Z,65.30
2018-07-10T12:16:28.182Z,65.30
2018-07-10T12:18:56.665Z,65.40
2018-07-10T12:21:25.187Z,65.20
2018-07-10T12:23:53.750Z,65.80
2018-07-10T12:26:22.980Z,65.70
2018-07-10T12:28:51.652Z,65.60
2018-07-10T12:31:20.243Z,65.20
2018-07-10T12:33:48.753Z,65.30
2018-07-10T12:36:17.275Z,65.20
2018-07-10T12:38:45.843Z,65.70
2018-07-10T12:41:14.684Z,66.20
2018-07-10T12:43:43.222Z,66.10
2018-07-10T12:46:12.116Z,65.90
2018-07-10T12:48:40.636Z,65.20
2018-07-10T12:51:09.148Z,65.60
2018-07-10T12:53:38.757Z,66.70
2018-07-10T12:56:07.409Z,66.50
2018-07-10T12:58:39.580Z,65.50
2018-07-10T13:01:08.791Z,66.00
2018-07-10T13:03:37.736Z,64.90
2018-07-10T13:06:06.345Z,64.60
2018-07-10T13:08:34.929Z,65.50
2018-07-10T13:11:03.477Z,65.60
2018-07-10T13:13:32.004Z,65.50
2018-07-10T13:16:00.529Z,65.80
2018-07-10T13:18:30.251Z,65.60
2018-07-10T13:20:58.717Z,65.90
2018-07-10T13:23:27.439Z,65.90
2018-07-10T13:25:55.952Z,65.30
2018-07-10T13:28:24.526Z,65.20
2018-07-10T13:30:53.044Z,65.40
2018-07-10T13:33:21.605Z,65.40
2018-07-10T13:35:50.208Z,65.70
2018-07-10T13:38:20.740Z,66.10
2018-07-10T13:40:49.844Z,65.10
2018-07-10T13:43:18.449Z,66.00
2018-07-10T13:45:47.152Z,66.00
2018-07-10T13:48:16.166Z,65.60
2018-07-10T13:50:44.732Z,65.30
2018-07-10T13:53:13.238Z,64.80
2018-07-10T13:55:41.753Z,64.80
2018-07-10T13:58:14.117Z,65.20
2018-07-10T14:00:44.648Z,65.30
2018-07-10T14:03:13.215Z,65.50
2018-07-10T14:05:41.969Z,65.90
2018-07-10T14:08:10.634Z,65.80
2018-07-10T14:10:39.548Z,65.60
2018-07-10T14:13:08.305Z,66.20
2018-07-10T14:15:36.845Z,65.60
2018-07-10T14:18:05.946Z,65.50
2018-07-10T14:20:41.857Z,64.90
2018-07-10T14:23:10.688Z,65.70
2018-07-10T14:25:39.205Z,66.00
2018-07-10T14:33:04.124Z,66.50
2018-07-10T14:35:32.741Z,66.00
2018-07-10T14:38:03.685Z,65.40
2018-07-10T14:40:32.986Z,65.50
2018-07-10T14:43:01.744Z,65.60
2018-07-10T14:50:28.728Z,65.80
2018-07-10T14:52:57.320Z,65.70
2018-07-10T14:55:25.861Z,65.80
2018-07-10T14:57:54.651Z,66.10
2018-07-10T15:00:23.229Z,65.80
2018-07-10T15:02:51.723Z,69.00
2018-07-10T15:05:20.229Z,70.00
2018-07-10T15:07:48.723Z,70.50
2018-07-10T15:10:17.218Z,71.20
2018-07-10T15:12:45.701Z,72.00
2018-07-10T15:15:14.261Z,72.50
2018-07-10T15:17:48.093Z,72.50
2018-07-10T15:20:16.599Z,73.90
2018-07-10T15:22:45.054Z,74.30
2018-07-10T15:25:13.535Z,75.20
2018-07-10T15:27:42.060Z,75.40
2018-07-10T15:30:10.578Z,75.60
2018-07-10T15:32:39.028Z,76.00
2018-07-10T15:35:07.724Z,76.20
2018-07-10T15:37:36.248Z,76.90
2018-07-10T15:42:32.969Z,77.20
2018-07-10T15:45:01.549Z,77.70
2018-07-10T15:47:30.121Z,77.80
2018-07-10T15:49:58.657Z,77.60
2018-07-10T15:52:27.148Z,77.60
2018-07-10T15:54:55.678Z,77.40
2018-07-10T15:57:24.136Z,77.70
2018-07-10T15:59:52.689Z,78.20
2018-07-10T16:02:21.479Z,78.00
2018-07-10T16:04:52.315Z,77.10
2018-07-10T16:07:21.480Z,76.80
2018-07-10T16:09:50.705Z,76.70
2018-07-10T16:12:20.804Z,77.00
2018-07-10T16:14:50.857Z,76.90
2018-07-10T16:17:23.869Z,77.00
2018-07-10T16:20:12.299Z,75.50
2018-07-10T16:22:42.029Z,75.40
2018-07-10T16:25:28.270Z,75.20
2018-07-10T16:27:57.525Z,74.30
2018-07-10T16:30:27.575Z,74.70
2018-07-10T16:32:56.349Z,74.90
2018-07-10T16:35:28.753Z,75.30
2018-07-10T16:37:58.804Z,74.80
2018-07-10T16:40:27.442Z,74.50
2018-07-10T16:42:56.788Z,74.60
2018-07-10T16:45:30.403Z,75.30
2018-07-10T16:48:13.828Z,76.10
2018-07-10T16:50:45.483Z,76.20
2018-07-10T16:53:15.265Z,76.30
2018-07-10T16:55:43.801Z,76.60
2018-07-10T16:58:12.353Z,76.70
2018-07-10T17:00:40.909Z,77.30
2018-07-10T17:03:10.585Z,77.50
2018-07-10T17:05:39.065Z,77.70
2018-07-10T17:08:07.510Z,78.00
2018-07-10T17:10:36.069Z,77.80
2018-07-10T17:13:04.569Z,79.20
2018-07-10T17:15:33.153Z,79.70
2018-07-10T17:18:01.673Z,83.30
2018-07-10T17:20:30.419Z,83.50
2018-07-10T17:22:58.921Z,84.50
2018-07-10T17:25:27.506Z,84.60
2018-07-10T17:27:56.053Z,84.70
2018-07-10T17:30:24.556Z,85.90
2018-07-10T17:32:53.083Z,85.80
2018-07-10T17:35:21.671Z,85.80
2018-07-10T17:37:50.634Z,85.80
2018-07-10T17:40:19.962Z,85.60
2018-07-10T17:42:49.292Z,85.70
2018-07-10T17:45:21.268Z,85.80
2018-07-10T17:47:50.516Z,85.50
2018-07-10T17:50:19.053Z,85.30
2018-07-10T17:52:47.647Z,85.30
2018-07-10T17:57:44.356Z,84.70
2018-07-10T18:00:12.901Z,85.40
2018-07-10T18:02:41.403Z,85.60
2018-07-10T18:05:10.073Z,85.60
2018-07-10T18:07:38.614Z,85.80
2018-07-10T18:10:07.164Z,85.90
2018-07-10T18:12:35.742Z,85.70
2018-07-10T18:15:04.306Z,85.80
2018-07-10T18:17:32.848Z,85.80
2018-07-10T18:20:01.785Z,85.50
2018-07-10T18:22:30.418Z,86.50
2018-07-10T18:24:58.939Z,85.90
2018-07-10T18:27:27.480Z,86.20
2018-07-10T18:29:56.022Z,86.30
2018-07-10T18:32:24.501Z,86.50
2018-07-10T18:34:53.000Z,86.60
2018-07-10T18:37:21.532Z,86.20
2018-07-10T18:39:50.134Z,86.10
2018-07-10T18:42:18.678Z,86.10
2018-07-10T18:44:47.160Z,86.30
2018-07-10T18:47:15.757Z,86.00
2018-07-10T18:49:45.603Z,85.90
2018-07-10T18:52:14.157Z,85.90
2018-07-10T18:54:42.663Z,86.00
2018-07-10T18:57:19.373Z,86.00
2018-07-10T18:59:53.258Z,86.10
2018-07-10T19:02:27.774Z,86.20
2018-07-10T19:05:06.877Z,86.30
2018-07-10T19:10:04.625Z,86.60
2018-07-10T19:12:33.317Z,86.70
2018-07-10T19:15:02.419Z,87.00
2018-07-10T19:17:32.787Z,86.90
2018-07-10T19:20:06.459Z,86.70
2018-07-10T19:22:54.537Z,86.60
2018-07-10T19:25:23.457Z,86.80
2018-07-10T19:27:54.235Z,86.90
2018-07-10T19:30:34.356Z,87.10
2018-07-10T19:33:02.869Z,87.30
2018-07-10T19:35:31.956Z,87.50
2018-07-10T19:38:00.501Z,87.30
2018-07-10T19:40:29.123Z,87.50
2018-07-10T19:42:57.679Z,87.50
2018-07-10T19:45:26.230Z,87.10
2018-07-10T19:47:55.320Z,87.10
2018-07-10T19:50:25.336Z,87.50
2018-07-10T19:52:55.396Z,87.40
2018-07-10T19:55:26.498Z,87.50
2018-07-10T19:57:59.853Z,87.40
2018-07-10T20:00:35.757Z,87.30
2018-07-10T20:03:04.556Z,87.20
2018-07-10T20:05:33.085Z,87.30
2018-07-10T20:08:09.418Z,87.60
2018-07-10T20:10:45.522Z,88.30
2018-07-10T20:13:19.584Z,88.50
2018-07-10T20:15:53.493Z,88.70
2018-07-10T20:19:33.814Z,88.70
2018-07-10T20:22:12.106Z,88.80
2018-07-10T20:24:49.408Z,88.80
2018-07-10T20:27:25.268Z,88.80
2018-07-10T20:30:05.832Z,88.90
2018-07-10T20:33:43.000Z,88.80
2018-07-10T20:38:39.628Z,88.90
2018-07-10T20:41:08.617Z,88.90
2018-07-10T20:43:40.718Z,88.60
2018-07-10T20:46:14.235Z,88.60
2018-07-10T20:48:58.984Z,88.60
2018-07-10T20:51:34.705Z,88.80
2018-07-10T20:54:15.218Z,89.00
2018-07-10T20:58:53.927Z,88.80
2018-07-10T21:01:29.481Z,88.70
2018-07-10T21:04:02.402Z,88.30
2018-07-10T21:06:50.405Z,88.40
2018-07-10T21:09:20.210Z,88.50
2018-07-10T21:12:00.051Z,88.50
2018-07-10T21:15:42.709Z,88.50
2018-07-10T21:18:21.165Z,88.60
2018-07-10T21:21:00.085Z,88.50
2018-07-10T21:24:35.987Z,88.90
2018-07-10T21:27:07.665Z,88.80
2018-07-10T21:32:15.000Z,88.90
2018-07-10T21:34:48.679Z,88.90
2018-07-10T21:38:21.563Z,88.80
2018-07-10T21:41:58.328Z,88.80
2018-07-10T21:48:17.487Z,88.60
2018-07-10T21:50:49.916Z,88.70
2018-07-10T21:53:18.776Z,88.90
2018-07-10T21:55:47.339Z,89.20
2018-07-10T21:58:17.668Z,89.40
2018-07-10T22:03:17.179Z,89.80
2018-07-10T22:05:45.972Z,89.70
2018-07-10T22:08:14.489Z,89.60
2018-07-10T22:10:43.069Z,89.60
2018-07-10T22:13:11.617Z,89.70
2018-07-10T22:15:40.161Z,89.70
2018-07-10T22:18:08.660Z,89.90
2018-07-10T22:20:37.156Z,89.70
2018-07-10T22:23:05.704Z,89.70
2018-07-10T22:25:34.192Z,89.60
2018-07-10T22:28:02.745Z,89.50
2018-07-10T22:30:36.656Z,89.40
2018-07-10T22:33:05.209Z,89.60
2018-07-10T22:35:33.752Z,89.50
2018-07-10T22:38:02.276Z,89.60
2018-07-10T22:40:30.843Z,90.20
2018-07-10T22:42:59.356Z,90.20
2018-07-10T22:45:28.216Z,90.10
2018-07-10T22:47:56.750Z,89.80
2018-07-10T22:50:25.694Z,89.70
2018-07-10T22:52:58.100Z,89.70
2018-07-10T22:55:28.508Z,89.90
2018-07-10T22:58:00.121Z,90.00
2018-07-10T23:00:32.184Z,89.80
2018-07-10T23:03:01.570Z,89.80
2018-07-10T23:05:30.143Z,89.70
2018-07-10T23:10:27.472Z,89.40
2018-07-10T23:15:25.017Z,89.80
2018-07-10T23:17:53.605Z,89.70
2018-07-10T23:20:22.745Z,89.70
2018-07-10T23:22:56.520Z,89.70
2018-07-10T23:25:26.355Z,89.70
2018-07-10T23:27:58.518Z,89.70
2018-07-10T23:30:27.157Z,89.60
2018-07-10T23:32:55.801Z,89.60
2018-07-10T23:35:24.901Z,89.70
2018-07-10T23:37:56.716Z,89.70
2018-07-10T23:40:25.297Z,89.60
2018-07-10T23:42:53.810Z,89.50
2018-07-10T23:45:24.109Z,89.70
2018-07-10T23:47:57.567Z,89.60
2018-07-10T23:50:27.928Z,89.50
2018-07-10T23:53:59.124Z,89.70
2018-07-10T23:56:27.707Z,89.80
2018-07-10T23:58:56.224Z,89.90
